Nearby METAR Reports

 

KDFW - Dallas/Ft Worth, Texas, USA
Distance from station: NE 8mi, 14km
Updated: 01/22/2019 3:53am
Overcast
Overcast
 Wind from SSE
Wind: SSE 15 mph , 24 km/h, Gust: 22 mph , 35 km/h
Temperature: 55°F , 13°C
Dew Point: 48°F , 9°C
Humidity: 77%
Barometer: 29.82 inHg , 1009.8 hPa
Clouds: Overcast
Visibility: 10 miles , 16 km
Cloud details: Overcast 3900 ft
2019/01/22 09:53 KDFW 220953Z 16013G19KT 10SM OVC039 13/09 A2982 RMK AO2 SLP093 T01330089
KFTW - Fort Worth, Texas, USA
Distance from station: W 13mi, 21km
Updated: 01/22/2019 3:53am
Overcast
Overcast
 Wind from SSE
Wind: SSE 18 mph , 30 km/h
Temperature: 55°F , 13°C
Dew Point: 48°F , 9°C
Humidity: 77%
Barometer: 29.80 inHg , 1009.1 hPa
Clouds: Overcast
Visibility: 10 miles , 16 km
Cloud details: Partly cloudy 2200 ft
Partly cloudy 2600 ft
Overcast 3700 ft
2019/01/22 09:53 KFTW 220953Z 16016KT 10SM SCT022 SCT026 OVC037 13/09 A2980 RMK AO2 PK WND 16034/0908 SLP088 T01280094
 
KAFW - Ft Worth/Allianc, Texas, USA
Distance from station: NW 14mi, 22km
Updated: 01/22/2019 3:53am
Overcast
Overcast
 Wind from S
Wind: S 20 mph , 31 km/h, Gust: 31 mph , 50 km/h
Temperature: 57°F , 14°C
Dew Point: 48°F , 9°C
Humidity: 72%
Barometer: 29.79 inHg , 1008.8 hPa
Clouds: Overcast
Visibility: 10 miles , 16 km
Cloud details: Mostly cloudy 2600 ft
Overcast 3500 ft
2019/01/22 09:53 KAFW 220953Z 17017G27KT 10SM BKN026 OVC035 14/09 A2979 RMK AO2 PK WND 17027/0951 SLP086 T01390094 $
KDAL - Dallas/Love Fld, Texas, USA
Distance from station: E 17mi, 27km
Updated: 01/22/2019 3:53am
Overcast
Overcast
 Wind from SSE
Wind: SSE 20 mph , 31 km/h, Gust: 30 mph , 48 km/h
Temperature: 55°F , 13°C
Dew Point: 48°F , 9°C
Humidity: 77%
Barometer: 29.84 inHg , 1010.5 hPa
Clouds: Overcast
Visibility: 10 miles , 16 km
Cloud details: Few Clouds 3000 ft
Overcast 4000 ft
2019/01/22 09:53 KDAL 220953Z 16017G26KT 10SM FEW030 OVC040 13/09 A2984 RMK AO2 PK WND 16026/0946 SLP100 T01330094 $
 
KNFW - Fort Worth Nas, Texas, USA
Distance from station: WSW 17mi, 28km
Updated: 01/22/2019 4:03am
Overcast
Overcast
 Wind from S
Wind: S 23 mph , 37 km/h, Gust: 33 mph , 54 km/h
Temperature: 57°F , 14°C
Dew Point: 48°F , 9°C
Humidity: 72%
Barometer: 29.80 inHg , 1009.1 hPa
Clouds: Overcast
Visibility: 10 miles , 16 km
Cloud details: Partly cloudy 2000 ft
Overcast 3600 ft
2019/01/22 10:03 KNFW 221003Z AUTO 17020G29KT 10SM SCT020 OVC036 14/09 A2980 RMK AO2 PK WND 18029/0956 T01390094 VISNO N $
KRBD - Dallas/Redbird, Texas, USA
Distance from station: ESE 19mi, 30km
Updated: 01/22/2019 3:53am

 Wind from SSE
Wind: SSE 18 mph , 30 km/h, Gust: 24 mph , 39 km/h
Temperature: 55°F , 13°C
Dew Point: 48°F , 9°C
Humidity: 77%
Barometer: 29.82 inHg , 1009.8 hPa
Visibility: 10 miles , 16 km
2019/01/22 09:53 KRBD 220953Z AUTO 16016G21KT 10SM 13/09 A2982 RMK AO2 PK WND 15026/0915 SLP096 T01280089 $
 
KFWS - Fort Worth/Spinks, Texas, USA
Distance from station: SSW 21mi, 33km
Updated: 01/22/2019 3:55am
Overcast
Overcast
 Wind from S
Wind: S 13 mph , 20 km/h, Gust: 20 mph , 31 km/h
Temperature: 55°F , 13°C
Dew Point: 50°F , 10°C
Humidity: 82%
Barometer: 29.83 inHg , 1010.2 hPa
Clouds: Overcast
Visibility: 10 miles , 16 km
Cloud details: Overcast 3700 ft
2019/01/22 09:55 KFWS 220955Z AUTO 17011G17KT 10SM OVC037 13/10 A2983 RMK AO2 T01300096
KADS - Dallas/Addison, Texas, USA
Distance from station: ENE 21mi, 34km
Updated: 01/22/2019 3:55am
Overcast
Overcast
 Wind from SSE
Wind: SSE 16 mph , 26 km/h, Gust: 25 mph , 41 km/h
Temperature: 55°F , 13°C
Dew Point: 48°F , 9°C
Humidity: 77%
Barometer: 29.85 inHg , 1010.8 hPa
Clouds: Overcast
Visibility: 10 miles , 16 km
Cloud details: Overcast 3800 ft
2019/01/22 09:55 KADS 220955Z AUTO 16014G22KT 10SM OVC038 13/09 A2985 RMK AO2 T01280091
 
KDTO - Denton, Texas, USA
Distance from station: N 26mi, 41km
Updated: 01/22/2019 3:53am
Overcast
Overcast
 Wind from S
Wind: S 21 mph , 33 km/h, Gust: 35 mph , 56 km/h
Temperature: 57°F , 14°C
Dew Point: 48°F , 9°C
Humidity: 72%
Barometer: 29.80 inHg , 1009.1 hPa
Clouds: Overcast
Visibility: 10 miles , 16 km
Cloud details: Few Clouds 2500 ft
Overcast 3700 ft
2019/01/22 09:53 KDTO 220953Z AUTO 17018G30KT 10SM FEW025 OVC037 14/09 A2980 RMK AO2 PK WND 17036/0904 SLP087 T01390089
KLUD - Decatur, Texas, USA
Distance from station: NW 39mi, 62km
Updated: 01/22/2019 3:55am
Overcast
Overcast
 Wind from SSE
Wind: SSE 16 mph , 26 km/h, Gust: 29 mph , 46 km/h
Temperature: 55°F , 13°C
Dew Point: 50°F , 10°C
Humidity: 82%
Barometer: 29.76 inHg , 1007.8 hPa
Clouds: Overcast
Visibility: 10 miles , 16 km
Cloud details: Overcast 2100 ft
2019/01/22 09:55 KLUD 220955Z AUTO 16014G25KT 10SM OVC021 13/10 A2976 RMK AO2 T01260095
 
KSPS - Wichita Falls/Sheppard AFB, Texas, USA
Distance from station: NW 111mi, 179km
Updated: 01/22/2019 3:52am
Overcast
Overcast
 Wind from SSW
Wind: SSW 12 mph , 19 km/h
Temperature: 55°F , 13°C
Dew Point: 50°F , 10°C
Humidity: 82%
Barometer: 29.72 inHg , 1006.4 hPa
Clouds: Overcast
Visibility: 10 miles , 16 km
Cloud details: Overcast 2600 ft
2019/01/22 09:52 KSPS 220952Z AUTO 20010KT 10SM OVC026 13/10 A2972 RMK AO2 SLP056 T01330100 $